Time;durP1;ratioP1;P1;durP2;ratioP2;P2;SDS_P1;SDS_P2;PMS_P1;PMS_P2;Temp;Humidity;BMP_temperature;BMP_pressure;BME280_temperature;BME280_humidity;BME280_pressure;Samples;Min_cycle;Max_cycle;Signal;HPM_P1;HPM_P2
2021/01/30 00:00:28;;;;;;;12.00;7.60;;;;;;;-1.80;62.11;98900.65;1721496;83;21165;-39
2021/01/30 00:02:57;;;;;;;11.73;7.47;;;;;;;-1.84;62.11;98905.14;1681975;83;21169;-39
2021/01/30 00:05:25;;;;;;;12.97;8.03;;;;;;;-1.88;62.21;98919.20;1688496;83;21173;-44
2021/01/30 00:07:53;;;;;;;10.57;6.47;;;;;;;-1.90;62.21;98923.61;1681385;83;21177;-36
2021/01/30 00:10:22;;;;;;;14.03;7.90;;;;;;;-1.93;62.29;98920.26;1707398;82;21511;-39
2021/01/30 00:12:50;;;;;;;11.27;7.00;;;;;;;-1.96;62.33;98927.28;1721423;81;21139;-50
2021/01/30 00:15:22;;;;;;;9.30;5.67;;;;;;;-2.00;62.46;98926.97;1721024;82;21612;-36
2021/01/30 00:17:50;;;;;;;12.87;7.23;;;;;;;-2.03;62.52;98923.16;1723928;81;21168;-35
2021/01/30 00:20:29;;;;;;;10.80;6.43;;;;;;;-2.05;62.56;98924.11;1706471;82;21141;-38
2021/01/30 00:22:57;;;;;;;9.70;5.97;;;;;;;-2.06;62.54;98931.55;1708410;81;21193;-36
2021/01/30 00:25:28;;;;;;;7.23;5.07;;;;;;;-2.09;62.58;98936.42;1706980;81;21183;-36
2021/01/30 00:27:55;;;;;;;10.18;5.58;;;;;;;-2.11;62.52;98936.07;1698991;81;21206;-36
2021/01/30 00:30:25;;;;;;;11.07;6.37;;;;;;;-2.14;62.45;98937.02;1715821;82;21149;-38
2021/01/30 00:32:53;;;;;;;13.47;7.60;;;;;;;-2.20;62.45;98943.72;1681028;83;21532;-40
2021/01/30 00:35:22;;;;;;;12.57;7.73;;;;;;;-2.23;62.56;98945.98;1704725;82;21875;-37
2021/01/30 00:37:50;;;;;;;14.00;8.20;;;;;;;-2.24;62.62;98949.97;1721411;81;21198;-40
2021/01/30 00:40:18;;;;;;;13.40;8.20;;;;;;;-2.25;62.52;98950.39;1719347;81;21185;-38
2021/01/30 00:42:46;;;;;;;15.67;9.00;;;;;;;-2.26;62.34;98948.69;1720874;81;21157;-37
2021/01/30 00:45:16;;;;;;;14.47;7.40;;;;;;;-2.32;62.26;98940.17;1723354;81;21174;-40
2021/01/30 00:47:44;;;;;;;9.28;6.33;;;;;;;-2.37;62.41;98953.83;1707347;81;21155;-39
2021/01/30 00:50:14;;;;;;;10.27;7.27;;;;;;;-2.41;62.32;98953.92;1704745;82;21161;-36
2021/01/30 00:52:43;;;;;;;10.50;6.60;;;;;;;-2.43;62.31;98949.64;1717145;81;21305;-38
2021/01/30 00:55:19;;;;;;;10.07;7.07;;;;;;;-2.45;62.33;98957.52;1722699;81;21288;-40
2021/01/30 00:57:47;;;;;;;9.87;6.27;;;;;;;-2.47;62.37;98959.34;1700070;81;21182;-39
2021/01/30 01:00:19;;;;;;;14.73;7.43;;;;;;;-2.47;62.38;98964.98;1721855;81;21346;-40
2021/01/30 01:02:46;;;;;;;;;;;;;;;-2.49;62.41;98970.73;1730031;81;21168;-39
2021/01/30 01:05:15;;;;;;;16.57;8.20;;;;;;;-2.50;62.45;98971.16;1726431;81;20207;-40
2021/01/30 01:07:44;;;;;;;12.70;7.83;;;;;;;-2.51;62.33;98977.75;1722581;81;21593;-41
2021/01/30 01:10:13;;;;;;;15.47;8.20;;;;;;;-2.55;62.37;98973.50;1699423;82;21206;-40
2021/01/30 01:12:40;;;;;;;17.90;10.60;;;;;;;-2.57;62.32;98981.40;1696367;82;21502;-40
2021/01/30 01:15:09;;;;;;;12.83;8.03;;;;;;;-2.59;62.32;98975.81;1702841;82;21160;-37
2021/01/30 01:17:37;;;;;;;14.40;6.63;;;;;;;-2.64;62.41;98980.70;1693082;82;21181;-41
2021/01/30 01:20:08;;;;;;;11.90;6.93;;;;;;;-2.64;62.42;98977.25;1703025;82;21213;-41
2021/01/30 01:22:36;;;;;;;;;;;;;;;-2.68;62.39;98988.66;1701673;82;21173;-41
2021/01/30 01:25:05;;;;;;;11.67;7.27;;;;;;;-2.73;62.42;98987.94;1699374;82;20193;-39
2021/01/30 01:27:32;;;;;;;9.40;6.13;;;;;;;-2.77;62.42;98991.52;1711845;81;21166;-41
2021/01/30 01:30:00;;;;;;;9.47;6.43;;;;;;;-2.83;62.50;98992.09;1685235;83;21181;-42
2021/01/30 01:32:27;;;;;;;9.20;6.03;;;;;;;-2.86;62.54;98988.27;1717897;81;21465;-39
2021/01/30 01:34:55;;;;;;;17.10;8.17;;;;;;;-2.87;62.50;98986.58;1703832;81;22062;-37
2021/01/30 01:37:23;;;;;;;8.97;5.93;;;;;;;-2.88;62.57;98999.65;1709179;81;21209;-39
2021/01/30 01:39:50;;;;;;;8.77;5.33;;;;;;;-2.90;62.52;98993.19;1719810;81;21141;-39
2021/01/30 01:42:23;;;;;;;9.23;5.50;;;;;;;-2.93;62.56;98998.92;1692070;83;21161;-38
2021/01/30 01:44:51;;;;;;;7.70;5.67;;;;;;;-2.96;62.56;98995.09;1702139;82;21178;-39
2021/01/30 01:47:35;;;;;;;9.00;5.40;;;;;;;-2.99;62.52;98999.09;1706493;83;21165;-36
2021/01/30 01:50:06;;;;;;;9.07;5.83;;;;;;;-3.00;62.59;98999.98;1706659;82;21169;-39
2021/01/30 01:52:37;;;;;;;10.10;6.27;;;;;;;-3.03;62.59;98987.87;1704044;82;21189;-38
2021/01/30 01:55:09;;;;;;;10.93;5.87;;;;;;;-3.05;62.52;98985.32;1701640;82;21209;-36
2021/01/30 01:57:44;;;;;;;9.57;6.10;;;;;;;-3.07;62.55;98986.27;1702637;82;21141;-38
2021/01/30 02:00:13;;;;;;;10.03;6.07;;;;;;;-3.08;62.53;98978.86;1717125;81;21146;-38
2021/01/30 02:02:41;;;;;;;11.17;6.73;;;;;;;-3.11;62.41;98980.25;1724750;81;21150;-37
2021/01/30 02:05:11;;;;;;;10.17;6.37;;;;;;;-3.13;62.25;98985.10;1714141;81;21488;-39
2021/01/30 02:07:41;;;;;;;10.82;6.15;;;;;;;-3.16;62.29;98986.50;1706938;81;21174;-37
2021/01/30 02:10:15;;;;;;;9.50;5.97;;;;;;;-3.19;62.35;98984.82;1711797;82;21177;-39
2021/01/30 02:12:43;;;;;;;9.10;5.77;;;;;;;-3.21;62.28;98977.94;1702789;82;21180;-43
2021/01/30 02:15:12;;;;;;;10.33;6.30;;;;;;;-3.24;62.25;98971.50;1694176;81;21315;-39
2021/01/30 02:17:58;;;;;;;11.03;6.07;;;;;;;-3.27;62.00;98971.14;1709030;83;21689;-37
2021/01/30 02:21:19;;;;;;;8.43;5.20;;;;;;;-3.31;62.04;98957.30;1664454;84;21203;-36
2021/01/30 02:24:33;;;;;;;9.67;5.73;;;;;;;-3.36;62.16;98959.17;1647657;85;21350;-41
2021/01/30 02:27:18;;;;;;;8.00;5.73;;;;;;;-3.41;62.48;98954.98;1634615;85;21216;-39
2021/01/30 02:30:02;;;;;;;8.63;5.97;;;;;;;-3.37;62.69;98954.02;1796254;78;23102;-40
2021/01/30 02:32:59;;;;;;;8.30;5.53;;;;;;;-3.41;62.68;98961.50;1774989;80;21252;-42
2021/01/30 02:35:59;;;;;;;8.20;5.33;;;;;;;-3.43;62.74;98957.62;1770861;80;21176;-38
2021/01/30 02:38:28;;;;;;;14.30;6.07;;;;;;;-3.43;62.71;98961.53;1687602;83;21882;-36
2021/01/30 02:41:00;;;;;;;7.93;6.07;;;;;;;-3.42;62.62;98965.02;1691839;83;21433;-39
2021/01/30 02:43:36;;;;;;;7.53;5.83;;;;;;;-3.47;62.37;98970.34;1690711;83;21177;-39
2021/01/30 02:46:09;;;;;;;7.90;5.20;;;;;;;-3.54;62.28;98961.81;1691232;83;21131;-39
2021/01/30 02:48:44;;;;;;;6.60;5.07;;;;;;;-3.58;62.26;98954.98;1688926;83;21172;-37
2021/01/30 02:51:16;;;;;;;7.43;5.53;;;;;;;-3.63;62.02;98955.52;1693512;83;21292;-39
2021/01/30 02:53:51;;;;;;;8.77;5.30;;;;;;;-3.69;62.11;98951.77;1674539;84;21154;-38
2021/01/30 02:56:26;;;;;;;7.40;4.93;;;;;;;-3.69;62.27;98951.77;1773520;79;23146;-39
2021/01/30 02:59:01;;;;;;;11.87;6.10;;;;;;;-3.80;62.34;98954.65;1735407;80;21134;-39
2021/01/30 03:01:29;;;;;;;7.17;4.77;;;;;;;-3.86;62.36;98949.57;1734228;80;21162;-40
2021/01/30 03:03:58;;;;;;;8.87;6.00;;;;;;;-3.90;62.49;98951.86;1735219;80;21153;-39
2021/01/30 03:06:38;;;;;;;8.27;5.00;;;;;;;-3.93;62.60;98950.19;1709897;82;21177;-40
2021/01/30 03:09:34;;;;;;;8.17;5.20;;;;;;;-3.96;62.68;98946.78;1740358;80;21145;-38
2021/01/30 03:12:08;;;;;;;10.10;5.80;;;;;;;-4.01;62.52;98944.28;1736252;80;21138;-38
2021/01/30 03:14:44;;;;;;;7.13;5.47;;;;;;;-4.03;62.42;98944.78;1734410;82;22099;-40
2021/01/30 03:17:11;;;;;;;6.97;4.63;;;;;;;-4.07;62.30;98944.89;1737644;80;21553;-40
2021/01/30 03:19:39;;;;;;;8.33;5.60;;;;;;;-4.12;62.36;98935.88;1736770;80;21652;-40
2021/01/30 03:22:09;;;;;;;9.83;5.43;;;;;;;-4.15;62.37;98934.65;1731467;80;21114;-38
2021/01/30 03:24:45;;;;;;;8.45;5.78;;;;;;;-4.17;62.34;98924.26;1736468;80;21161;-41
2021/01/30 03:27:22;;;;;;;8.07;5.60;;;;;;;-4.21;62.34;98929.56;1734731;80;21162;-40
2021/01/30 03:29:50;;;;;;;9.03;5.60;;;;;;;-4.28;62.35;98928.88;1710110;80;21575;-41
2021/01/30 03:32:19;;;;;;;6.83;4.83;;;;;;;-4.31;62.31;98932.82;1733159;80;21189;-37
2021/01/30 03:34:48;;;;;;;9.03;5.53;;;;;;;-4.36;62.47;98931.65;1735548;80;21161;-40
2021/01/30 03:37:16;;;;;;;9.10;6.07;;;;;;;-4.39;62.45;98927.78;1739694;80;21778;-38
2021/01/30 03:39:43;;;;;;;7.97;5.53;;;;;;;-4.41;62.41;98922.20;1738543;82;21609;-40
2021/01/30 03:42:11;;;;;;;9.37;6.37;;;;;;;-4.43;62.58;98920.95;1735135;80;21637;-41
2021/01/30 03:44:39;;;;;;;8.57;5.33;;;;;;;-4.43;62.70;98918.81;1733292;80;21178;-38
2021/01/30 03:47:06;;;;;;;7.87;5.60;;;;;;;-4.48;62.70;98929.77;1749703;80;21149;-37
2021/01/30 03:49:34;;;;;;;6.57;4.87;;;;;;;-4.48;62.75;98928.47;1735460;82;21406;-37
2021/01/30 03:52:02;;;;;;;10.37;5.53;;;;;;;-4.50;62.93;98936.30;1744061;80;21569;-39
2021/01/30 03:54:29;;;;;;;10.13;5.83;;;;;;;-4.50;63.11;98942.80;1730671;82;21149;-39
2021/01/30 03:56:57;;;;;;;9.53;6.47;;;;;;;-4.50;63.26;98940.20;1733109;80;21165;-40
2021/01/30 03:59:24;;;;;;;9.07;6.63;;;;;;;-4.48;63.45;98943.63;1728455;82;21110;-42
2021/01/30 04:01:52;;;;;;;10.77;6.63;;;;;;;-4.46;63.40;98944.88;1734705;80;21153;-37
2021/01/30 04:04:19;;;;;;;9.23;5.40;;;;;;;-4.50;63.30;98935.44;1733496;80;21141;-41
2021/01/30 04:06:51;;;;;;;12.17;7.00;;;;;;;-4.53;63.51;98936.37;1736031;82;21566;-40
2021/01/30 04:09:19;;;;;;;;;;;;;;;-4.54;63.52;98924.68;1738321;80;21142;-41
2021/01/30 04:11:47;;;;;;;12.30;7.63;;;;;;;-4.52;63.59;98925.51;1735055;80;20166;-37
2021/01/30 04:14:15;;;;;;;13.13;8.03;;;;;;;-4.52;63.54;98925.05;1737298;80;21153;-38
2021/01/30 04:16:43;;;;;;;15.33;10.13;;;;;;;-4.53;63.66;98927.26;1729473;82;21168;-39
2021/01/30 04:19:11;;;;;;;14.23;8.93;;;;;;;-4.50;63.79;98937.59;1734745;80;21913;-40
2021/01/30 04:21:38;;;;;;;15.20;8.80;;;;;;;-4.49;63.75;98938.45;1742239;82;21186;-38
2021/01/30 04:24:07;;;;;;;14.43;8.10;;;;;;;-4.50;63.76;98938.90;1741822;80;21578;-40
2021/01/30 04:26:34;;;;;;;15.53;8.53;;;;;;;-4.50;63.76;98937.59;1731632;82;21130;-35
2021/01/30 04:29:02;;;;;;;15.30;9.00;;;;;;;-4.50;63.83;98939.34;1731004;80;21153;-39
2021/01/30 04:31:30;;;;;;;13.80;9.30;;;;;;;-4.50;63.95;98939.34;1733331;80;21142;-37
2021/01/30 04:33:58;;;;;;;12.87;8.43;;;;;;;-4.48;63.97;98935.82;1736205;82;21543;-44
2021/01/30 04:36:26;;;;;;;10.90;7.50;;;;;;;-4.48;63.86;98941.03;1737782;80;21137;-38
2021/01/30 04:38:53;;;;;;;13.10;8.50;;;;;;;-4.49;63.75;98938.00;1740138;80;21133;-38
2021/01/30 04:41:29;;;;;;;14.17;8.97;;;;;;;-4.50;63.63;98936.75;1739232;80;21182;-38
2021/01/30 04:44:10;;;;;;;16.27;9.77;;;;;;;-4.56;63.43;98935.14;1733552;80;21162;-39
2021/01/30 04:46:53;;;;;;;;;;;;;;;-4.65;63.29;98934.87;1737205;80;21566;-43
2021/01/30 04:49:54;;;;;;;15.73;9.33;;;;;;;-4.73;63.45;98938.09;1724996;82;20176;-38
2021/01/30 04:52:46;;;;;;;18.37;9.97;;;;;;;-4.77;63.55;98933.83;1733713;82;21185;-40
2021/01/30 04:55:46;;;;;;;25.50;10.87;;;;;;;-4.75;63.71;98938.56;1729940;81;21150;-37
2021/01/30 04:58:26;;;;;;;18.77;10.03;;;;;;;-4.71;63.82;98932.84;1720990;82;21169;-41
2021/01/30 05:01:05;;;;;;;15.17;9.20;;;;;;;-4.68;63.47;98929.74;1718628;81;21452;-39
2021/01/30 05:04:02;;;;;;;14.57;8.23;;;;;;;-4.70;63.36;98925.46;1718970;81;21151;-38
2021/01/30 05:06:54;;;;;;;11.67;7.63;;;;;;;-4.72;63.10;98938.94;1726835;81;21567;-43
2021/01/30 05:09:33;;;;;;;11.33;6.90;;;;;;;-4.75;63.20;98958.07;1717389;82;21111;-40
2021/01/30 05:12:09;;;;;;;10.33;6.17;;;;;;;-4.77;63.32;98953.34;1719879;81;21449;-39
2021/01/30 05:14:43;;;;;;;9.80;6.60;;;;;;;-4.76;63.53;98953.77;1720861;82;21158;-41
2021/01/30 05:17:21;;;;;;;10.47;6.33;;;;;;;-4.78;63.63;98951.64;1721720;81;21899;-41
2021/01/30 05:19:55;;;;;;;9.13;5.77;;;;;;;-4.79;63.42;98959.89;1721165;82;21162;-39
2021/01/30 05:22:26;;;;;;;10.73;7.50;;;;;;;-4.77;63.45;98958.54;1718023;81;21134;-41
2021/01/30 05:24:53;;;;;;;9.70;5.57;;;;;;;-4.79;63.43;98955.99;1719432;81;21138;-37
2021/01/30 05:27:26;;;;;;;11.90;6.50;;;;;;;-4.84;63.36;98960.85;1721029;81;21602;-39
2021/01/30 05:30:09;;;;;;;12.10;6.90;;;;;;;-4.86;63.31;98971.30;1718353;81;21147;-40
2021/01/30 05:33:15;;;;;;;10.40;6.93;;;;;;;-4.86;63.30;98971.75;1729062;82;21191;-40
2021/01/30 05:36:14;;;;;;;10.67;6.33;;;;;;;-4.81;63.28;98960.81;1759381;79;23092;-49
2021/01/30 05:38:53;;;;;;;10.93;7.90;;;;;;;-4.85;63.37;98959.15;1707981;82;21585;-39
2021/01/30 05:41:54;;;;;;;12.20;7.30;;;;;;;-4.85;63.34;98954.80;1735611;82;21493;-39
2021/01/30 05:44:40;;;;;;;13.63;8.43;;;;;;;-4.86;63.77;98966.10;1738292;80;21169;-40
2021/01/30 05:47:14;;;;;;;15.17;7.73;;;;;;;-4.84;64.37;98979.94;1733957;82;21137;-40
2021/01/30 05:50:14;;;;;;;14.17;8.57;;;;;;;-4.81;64.72;98990.28;1732453;82;21105;-39
2021/01/30 05:52:42;;;;;;;14.50;7.90;;;;;;;-4.78;64.89;98994.56;1736866;80;21149;-40
2021/01/30 05:55:30;;;;;;;10.97;7.50;;;;;;;-4.79;64.83;99000.22;1741303;80;21138;-41
2021/01/30 05:58:08;;;;;;;17.03;9.07;;;;;;;-4.80;64.93;99004.13;1743779;80;21134;-41
2021/01/30 06:00:37;;;;;;;18.93;10.43;;;;;;;-4.81;64.92;98999.83;1729911;82;21133;-38
2021/01/30 06:03:13;;;;;;;16.37;9.73;;;;;;;-4.83;64.93;98989.89;1712933;82;21134;-39
2021/01/30 06:05:43;;;;;;;17.17;9.53;;;;;;;-4.85;64.97;98992.96;1702016;82;21145;-44
2021/01/30 06:08:25;;;;;;;14.78;9.53;;;;;;;-4.86;65.07;98984.77;1707117;83;21182;-41
2021/01/30 06:11:12;;;;;;;16.60;11.23;;;;;;;-4.87;65.21;99000.78;1710284;83;21133;-40
2021/01/30 06:14:01;;;;;;;21.50;12.73;;;;;;;-4.83;65.50;98988.59;1803146;78;23095;-38
2021/01/30 06:16:46;;;;;;;20.27;12.73;;;;;;;-4.85;65.72;98989.91;1783200;79;21130;-36
2021/01/30 06:19:18;;;;;;;21.80;13.40;;;;;;;-4.80;65.75;98995.03;1718067;81;21153;-40
2021/01/30 06:21:48;;;;;;;18.60;12.10;;;;;;;-4.79;65.77;98985.02;1713277;81;21166;-40
2021/01/30 06:24:30;;;;;;;23.73;13.37;;;;;;;-4.76;65.85;98988.01;1714372;83;21132;-42
2021/01/30 06:27:06;;;;;;;18.67;12.40;;;;;;;-4.75;65.93;98980.64;1720340;82;21150;-39
2021/01/30 06:29:50;;;;;;;21.70;13.47;;;;;;;-4.75;66.04;98977.59;1709034;82;21157;-38
2021/01/30 06:32:25;;;;;;;22.33;13.00;;;;;;;-4.72;66.09;98987.92;1720474;83;21195;-52
2021/01/30 06:35:11;;;;;;;19.40;12.73;;;;;;;-4.68;66.06;98979.17;1693176;83;21531;-39
2021/01/30 06:37:46;;;;;;;19.80;12.27;;;;;;;-4.65;66.06;98979.56;1718737;82;21142;-37
2021/01/30 06:40:30;;;;;;;20.13;13.10;;;;;;;-4.65;66.08;98970.00;1713546;83;21300;-40
2021/01/30 06:43:18;;;;;;;20.37;13.97;;;;;;;-4.62;66.31;98970.38;1712679;81;21138;-38
2021/01/30 06:45:46;;;;;;;25.00;14.17;;;;;;;-4.59;66.67;98968.59;1709717;82;21311;-39
2021/01/30 06:48:30;;;;;;;22.40;12.97;;;;;;;-4.52;66.95;98961.49;1720457;82;21157;-40
2021/01/30 06:50:58;;;;;;;21.13;11.40;;;;;;;-4.47;67.05;98954.44;1723217;82;21149;-39
2021/01/30 06:53:29;;;;;;;20.13;12.47;;;;;;;-4.44;67.10;98951.77;1714547;81;21685;-40
2021/01/30 06:56:24;;;;;;;20.23;12.13;;;;;;;-4.39;67.19;98946.46;1717322;82;21618;-37
2021/01/30 06:58:54;;;;;;;18.53;11.20;;;;;;;-4.36;67.33;98940.77;1643829;85;21237;-38
2021/01/30 07:01:22;;;;;;;18.13;10.73;;;;;;;-4.30;67.43;98948.02;1666236;84;21245;-37
2021/01/30 07:04:01;;;;;;;13.33;8.93;;;;;;;-4.25;67.31;98948.77;1625523;86;21668;-46
2021/01/30 07:06:55;;;;;;;16.53;9.40;;;;;;;-4.20;67.28;98948.22;1643854;86;21185;-37
2021/01/30 07:09:51;;;;;;;13.07;9.47;;;;;;;-4.11;67.31;98936.27;1800053;78;23084;-46
2021/01/30 07:12:32;;;;;;;14.57;9.27;;;;;;;-4.09;67.38;98945.36;1742697;81;21118;-42
2021/01/30 07:15:22;;;;;;;16.17;10.10;;;;;;;-4.02;67.45;98949.55;1719785;81;21185;-41
2021/01/30 07:18:10;;;;;;;13.53;8.93;;;;;;;-3.98;67.35;98945.95;1747715;81;21566;-42
2021/01/30 07:20:51;;;;;;;15.40;9.37;;;;;;;-3.93;67.50;98933.70;1707096;82;21130;-40
2021/01/30 07:23:36;;;;;;;15.07;8.90;;;;;;;-3.88;67.60;98936.17;1711466;83;21161;-40
2021/01/30 07:26:10;;;;;;;15.53;9.17;;;;;;;-3.83;67.71;98939.52;1716005;81;21150;-40
2021/01/30 07:28:45;;;;;;;14.57;9.63;;;;;;;-3.78;67.72;98939.84;1688592;83;21170;-38
2021/01/30 07:31:30;;;;;;;14.53;9.30;;;;;;;-3.75;67.70;98947.58;1719926;81;21911;-39
2021/01/30 07:34:23;;;;;;;15.43;9.17;;;;;;;-3.71;67.84;98946.59;1718160;82;21597;-39
2021/01/30 07:36:56;;;;;;;12.60;8.30;;;;;;;-3.65;67.50;98943.42;1719536;81;21181;-39
2021/01/30 07:39:48;;;;;;;15.03;9.43;;;;;;;-3.65;67.17;98950.81;1740819;81;21664;-42
2021/01/30 07:42:36;;;;;;;14.80;9.50;;;;;;;-3.66;67.07;98951.69;1723500;81;22050;-40
2021/01/30 07:45:21;;;;;;;13.97;9.27;;;;;;;-3.67;67.15;98951.75;1715470;83;21137;-40
2021/01/30 07:48:22;;;;;;;12.33;8.93;;;;;;;-3.67;67.44;98942.17;1724239;81;21118;-41
2021/01/30 07:51:10;;;;;;;12.37;9.40;;;;;;;-3.62;67.67;98947.28;1741545;81;21109;-37
2021/01/30 07:53:37;;;;;;;13.37;8.73;;;;;;;-3.57;67.65;98953.23;1629928;86;21177;-39
2021/01/30 07:56:22;;;;;;;13.87;9.40;;;;;;;-3.52;67.51;98956.58;1674722;83;21141;-41
2021/01/30 07:59:14;;;;;;;13.03;9.10;;;;;;;-3.47;67.50;98955.16;1673768;83;21202;-42
2021/01/30 08:02:15;;;;;;;13.10;8.83;;;;;;;-3.42;67.48;98955.89;1671525;83;21153;-39
2021/01/30 08:05:29;;;;;;;14.38;8.35;;;;;;;-3.37;67.37;98962.69;1674799;83;21629;-41
2021/01/30 08:08:02;;;;;;;11.17;7.87;;;;;;;-3.36;67.08;98964.84;1665527;84;22113;-40
2021/01/30 08:10:35;;;;;;;12.60;8.80;;;;;;;-3.35;67.14;98964.81;1674463;83;21209;-42
2021/01/30 08:13:26;;;;;;;14.53;8.87;;;;;;;-3.31;67.25;98954.70;1675064;83;21158;-38
2021/01/30 08:16:35;;;;;;;12.78;8.50;;;;;;;-3.26;67.28;98962.41;1671012;83;21181;-42
2021/01/30 08:19:13;;;;;;;14.07;8.97;;;;;;;-3.20;67.14;98956.16;1666405;84;21142;-40
2021/01/30 08:21:54;;;;;;;13.90;8.57;;;;;;;-3.17;67.03;98960.87;1673694;83;21162;-41
2021/01/30 08:24:46;;;;;;;12.78;7.50;;;;;;;-3.15;66.97;98942.55;1618465;86;21199;-39
2021/01/30 08:27:25;;;;;;;14.70;9.47;;;;;;;-3.10;67.10;98943.28;1673675;84;21137;-41
2021/01/30 08:30:03;;;;;;;13.10;9.87;;;;;;;-3.02;67.33;98944.38;1683854;80;21163;-41
2021/01/30 08:32:34;;;;;;;12.47;9.13;;;;;;;-2.95;67.46;98950.72;1741595;80;21118;-41
2021/01/30 08:35:25;;;;;;;16.63;8.93;;;;;;;-2.89;67.43;98946.61;1756307;79;21618;-42
2021/01/30 08:38:08;;;;;;;13.57;9.00;;;;;;;-2.83;67.41;98942.97;1753606;79;21157;-41
2021/01/30 08:40:54;;;;;;;13.83;8.87;;;;;;;-2.78;67.39;98947.61;1760376;80;21150;-41
2021/01/30 08:43:44;;;;;;;13.77;8.93;;;;;;;-2.72;67.56;98950.06;1740145;79;21111;-41
2021/01/30 08:46:22;;;;;;;11.57;8.83;;;;;;;-2.65;67.66;98955.48;1757998;80;21111;-39
2021/01/30 08:49:16;;;;;;;15.87;9.20;;;;;;;-2.57;67.79;98951.80;1698994;82;21146;-45
2021/01/30 08:52:03;;;;;;;12.57;8.70;;;;;;;-2.51;67.92;98951.19;1760641;79;21142;-39
2021/01/30 08:54:40;;;;;;;16.07;9.67;;;;;;;-2.44;68.02;98952.72;1760809;80;21169;-39
2021/01/30 08:57:36;;;;;;;15.47;9.53;;;;;;;-2.38;67.92;98950.82;1759466;79;21138;-38
2021/01/30 09:00:15;;;;;;;13.93;9.67;;;;;;;-2.34;68.00;98953.30;1766198;80;21125;-39
2021/01/30 09:02:47;;;;;;;13.73;9.47;;;;;;;-2.28;68.22;98956.17;1755578;79;21142;-42
2021/01/30 09:05:26;;;;;;;12.43;8.93;;;;;;;-2.24;68.35;98949.97;1758064;79;21165;-41
2021/01/30 09:07:56;;;;;;;14.57;9.40;;;;;;;-2.21;68.43;98945.95;1763781;79;21253;-39
2021/01/30 09:10:33;;;;;;;13.30;9.33;;;;;;;-2.19;68.42;98942.38;1763320;79;21137;-39
2021/01/30 09:13:19;;;;;;;12.73;9.30;;;;;;;-2.16;68.65;98946.66;1727598;81;21551;-41
2021/01/30 09:15:54;;;;;;;16.00;9.93;;;;;;;-2.12;68.76;98949.56;1762620;79;21126;-38
2021/01/30 09:18:37;;;;;;;13.43;9.43;;;;;;;-2.10;68.73;98937.77;1761070;79;21153;-41
2021/01/30 09:21:25;;;;;;;11.30;8.17;;;;;;;-2.08;68.82;98933.36;1755276;79;21126;-43
2021/01/30 09:24:19;;;;;;;14.17;8.93;;;;;;;-2.05;69.04;98924.11;1762758;79;21128;-42
2021/01/30 09:27:16;;;;;;;11.70;7.67;;;;;;;-2.02;69.25;98913.55;1754986;79;21606;-38
2021/01/30 09:29:46;;;;;;;11.70;7.53;;;;;;;-1.99;69.46;98913.45;1752189;79;22180;-40
2021/01/30 09:32:16;;;;;;;11.27;8.53;;;;;;;-1.97;69.59;98909.03;1762500;80;21648;-41
2021/01/30 09:34:54;;;;;;;12.33;8.63;;;;;;;-1.93;69.74;98902.81;1738211;80;21150;-42
2021/01/30 09:37:41;;;;;;;13.07;9.57;;;;;;;-1.91;69.76;98901.01;1757192;80;21141;-40
2021/01/30 09:40:13;;;;;;;13.20;8.60;;;;;;;-1.88;69.94;98898.75;1759040;80;21166;-41
2021/01/30 09:42:41;;;;;;;12.73;8.47;;;;;;;-1.86;70.11;98883.42;1755939;80;21142;-38
2021/01/30 09:45:15;;;;;;;10.13;7.43;;;;;;;-1.82;70.23;98885.47;1759066;79;21137;-38
2021/01/30 09:47:48;;;;;;;11.37;7.67;;;;;;;-1.79;70.35;98884.05;1760426;80;21138;-39
2021/01/30 09:50:35;;;;;;;10.13;6.97;;;;;;;-1.76;70.42;98882.20;1699567;82;21157;-41
2021/01/30 09:53:08;;;;;;;11.63;8.17;;;;;;;-1.74;70.55;98875.59;1759504;79;21158;-42
2021/01/30 09:55:36;;;;;;;12.27;7.87;;;;;;;-1.71;70.69;98862.45;1715353;79;21154;-42
2021/01/30 09:58:12;;;;;;;11.73;6.90;;;;;;;-1.70;70.79;98863.30;1760961;80;21840;-40
2021/01/30 10:00:43;;;;;;;10.57;7.73;;;;;;;-1.69;70.99;98859.30;1762784;79;21128;-42
2021/01/30 10:03:26;;;;;;;9.47;7.00;;;;;;;-1.68;71.17;98847.95;1762352;79;21618;-40
2021/01/30 10:05:54;;;;;;;10.30;7.07;;;;;;;-1.66;71.34;98843.54;1738590;80;21142;-42
2021/01/30 10:08:29;;;;;;;10.17;7.23;;;;;;;-1.63;71.44;98838.66;1722206;80;21153;-43
2021/01/30 10:11:15;;;;;;;7.90;6.23;;;;;;;-1.61;71.52;98831.16;1757678;79;21146;-41
2021/01/30 10:13:52;;;;;;;8.33;5.83;;;;;;;-1.59;71.63;98834.58;1761657;80;21138;-42
2021/01/30 10:16:22;;;;;;;7.30;6.10;;;;;;;-1.57;71.73;98828.81;1765140;79;21122;-43
2021/01/30 10:18:59;;;;;;;8.90;6.17;;;;;;;-1.55;71.79;98832.70;1696125;82;21583;-43
2021/01/30 10:21:39;;;;;;;8.63;6.63;;;;;;;-1.51;71.99;98836.92;1760397;79;21616;-42
2021/01/30 10:24:23;;;;;;;13.08;10.05;;;;;;;-1.47;72.04;98835.04;1757160;80;21142;-43
2021/01/30 10:26:53;;;;;;;14.60;9.27;;;;;;;-1.46;71.98;98826.27;1763217;80;21574;-39
2021/01/30 10:29:23;;;;;;;16.40;9.97;;;;;;;-1.45;71.94;98826.69;1764171;79;21122;-43
2021/01/30 10:31:59;;;;;;;13.60;9.03;;;;;;;-1.43;71.93;98824.88;1758070;79;21142;-42
2021/01/30 10:34:35;;;;;;;14.07;9.13;;;;;;;-1.42;71.93;98826.11;1764610;80;21142;-44
2021/01/30 10:37:18;;;;;;;13.87;9.87;;;;;;;-1.38;71.83;98824.27;1761107;80;21135;-40
2021/01/30 10:39:51;;;;;;;15.13;9.97;;;;;;;-1.37;71.84;98822.03;1757876;79;21150;-41
2021/01/30 10:42:24;;;;;;;15.93;9.97;;;;;;;-1.34;71.92;98811.45;1759333;80;21113;-42
2021/01/30 10:45:03;;;;;;;15.90;11.90;;;;;;;-1.32;71.92;98813.56;1767269;80;21102;-38
2021/01/30 10:47:30;;;;;;;19.00;13.27;;;;;;;-1.32;71.92;98803.95;1766680;80;21539;-40
2021/01/30 10:50:16;;;;;;;18.20;12.63;;;;;;;-1.29;71.82;98802.13;1770383;79;21141;-40
2021/01/30 10:52:43;;;;;;;24.37;14.27;;;;;;;-1.29;71.62;98795.13;1766511;80;21142;-40
2021/01/30 10:55:35;;;;;;;18.87;13.33;;;;;;;-1.31;71.57;98782.59;1747410;80;21153;-38
2021/01/30 10:58:19;;;;;;;22.05;14.23;;;;;;;-1.31;71.61;98784.75;1757601;81;21386;-39
2021/01/30 11:01:11;;;;;;;20.10;14.20;;;;;;;-1.31;71.65;98778.67;1762021;79;21135;-41
2021/01/30 11:03:54;;;;;;;17.93;13.37;;;;;;;-1.30;71.69;98776.44;1764595;80;21705;-39
2021/01/30 11:06:44;;;;;;;21.13;12.93;;;;;;;-1.27;71.77;98767.16;1761360;80;21629;-41
2021/01/30 11:09:28;;;;;;;21.53;12.30;;;;;;;-1.24;71.76;98755.73;1758920;80;21161;-39
2021/01/30 11:12:17;;;;;;;18.00;12.43;;;;;;;-1.23;71.76;98750.91;1764516;79;21142;-40
2021/01/30 11:14:45;;;;;;;16.57;11.90;;;;;;;-1.22;71.84;98751.30;1711185;81;21146;-41
2021/01/30 11:17:31;;;;;;;19.00;12.83;;;;;;;-1.20;71.91;98751.64;1763338;79;22045;-47
2021/01/30 11:19:59;;;;;;;18.50;12.47;;;;;;;-1.18;71.97;98751.13;1764483;79;21158;-40
2021/01/30 11:22:28;;;;;;;17.23;12.43;;;;;;;-1.15;71.95;98737.92;1723243;81;21132;-40
2021/01/30 11:25:09;;;;;;;17.90;12.10;;;;;;;-1.13;71.86;98734.80;1742348;79;21157;-40
2021/01/30 11:27:40;;;;;;;19.73;13.55;;;;;;;-1.12;71.83;98731.72;1764583;79;22434;-39
2021/01/30 11:30:25;;;;;;;16.47;10.77;;;;;;;-1.11;71.82;98724.26;1763382;80;21162;-39
2021/01/30 11:33:11;;;;;;;19.10;12.93;;;;;;;-1.10;71.78;98721.59;1755487;80;21125;-40
2021/01/30 11:35:41;;;;;;;18.57;12.57;;;;;;;-1.11;71.70;98712.48;1760271;79;21623;-41
2021/01/30 11:38:14;;;;;;;18.87;11.83;;;;;;;-1.13;71.88;98707.80;1764516;80;21107;-43
2021/01/30 11:40:42;;;;;;;18.93;12.17;;;;;;;-1.13;71.79;98700.79;1761277;79;21135;-43
2021/01/30 11:43:09;;;;;;;18.57;12.27;;;;;;;-1.14;71.70;98689.91;1763217;79;21145;-43
2021/01/30 11:45:37;;;;;;;21.93;12.93;;;;;;;-1.15;71.69;98685.59;1767905;79;21150;-41
2021/01/30 11:48:06;;;;;;;19.93;14.17;;;;;;;-1.13;72.00;98677.23;1762486;79;21602;-41
2021/01/30 11:50:34;;;;;;;16.53;12.40;;;;;;;-1.11;72.14;98678.47;1764816;79;21174;-42
2021/01/30 11:53:10;;;;;;;24.00;14.23;;;;;;;-1.07;72.34;98676.14;1757666;80;21135;-42
2021/01/30 11:55:39;;;;;;;18.80;12.93;;;;;;;-1.02;72.35;98672.03;1760227;79;21583;-43
2021/01/30 11:58:06;;;;;;;23.40;14.33;;;;;;;-0.97;72.27;98668.78;1762552;80;21134;-41
2021/01/30 12:00:34;;;;;;;19.30;12.20;;;;;;;-0.91;72.34;98667.21;1768461;80;21150;-41
2021/01/30 12:03:04;;;;;;;21.63;13.40;;;;;;;-0.86;72.31;98657.41;1766265;79;21167;-39
2021/01/30 12:05:31;;;;;;;17.63;12.87;;;;;;;-0.81;72.44;98653.30;1763990;80;21143;-41
2021/01/30 12:07:59;;;;;;;20.43;14.33;;;;;;;-0.78;72.35;98652.73;1759106;79;21146;-44
2021/01/30 12:10:27;;;;;;;16.47;12.53;;;;;;;-0.75;72.19;98635.58;1769468;80;21126;-38